ENST/SSJ METAR and TAF weather

Enter ICAO airport designator
Station Type Date Time Source
ENST METAR 2019/06/20 07:20 UTC NOAA

ENST 200720Z 02009KT 330V080 9999 VCSH SCT060 BKN070 15/07 Q1006 RMK WIND 300FT 11010KT


Station Type Date Time Source
ENST Decoded METAR 2019/06/20 07:20 UTC NOAA

Sandnessjoen / Stokka, Norway (ENST) 65-58N 012-28E 17M
Jun 20, 2019 - 03:20 AM EDT / 2019.06.20 0720 UTC
Wind: from the NNE (020 degrees) at 10 MPH (9 KT) (direction variable):0
Visibility: greater than 7 mile(s):0
Sky conditions: mostly cloudy
Weather: showers in the vicinity
Temperature: 59 F (15 C)
Dew Point: 44 F (7 C)
Relative Humidity: 58%
Pressure (altimeter): 29.71 in. Hg (1006 hPa)
ob: ENST 200720Z 02009KT 330V080 9999 VCSH SCT060 BKN070 15/07 Q1006 RMK WIND 300FT 11010KT
cycle: 7

Station Type Date Time Source
ENST TAF UTC NOAA

Error!

Example: see airport list